Saskatoon, Saskatchewan

7:20 AM CST on September 04, 2015 (GMT -0600)
Saskatoon-Diefenbaker International | | Change Station
CLOSE
Current Station
Airport
Location: Saskatoon,
Elevation: 1654 ft
Nearby Weather Stations

Elev 1654 ft 52.17 °N, 106.69 °W | Updated 20 minutes ago

Overcast
Overcast
48 °F
Feels Like 48 °F
N
5
Wind Variable Wind from North

Today is forecast to be nearly the same temperature as yesterday.

Today
High -- | Low -- °F
--% Chance of Precip.
Yesterday
High -- | Low -- °F
Precip. -- in
6:22 AM 7:47 PM
Waning Gibbous, 59% visible
Pressure 30.11 in
Visibility 15.0 miles
Clouds Overcast 11000 ft
Dew Point 45 °F
Humidity 87%
Rainfall 0.00 in
Snow Depth Not available.
UV 0 out of 12
Pollen Not available.
Air Quality Not available.
Flu Activity Not available.
METAR CYXE 041300Z 01004KT 310V010 15SM VCSH OVC110 09/07 A3007 RMK AC8 PRESRR SLP195
Pressure 30.11 in
Visibility 15.0 miles
Clouds Overcast 11000 ft
Dew Point 45 °F
Humidity 87%
Rainfall 0.00 in
Snow Depth Not available.
UV 0 out of 12
Pollen Not available.
Air Quality Not available.
Flu Activity Not available.
METAR CYXE 041300Z 01004KT 310V010 15SM VCSH OVC110 09/07 A3007 RMK AC8 PRESRR SLP195

10-Day Weather Forecast

×

Almanac

Astronomy

Sep. 04, 2015 Rise Set
Actual Time
Civil Twilight
Nautical Twilight
Astronomical Twilight
Moon
Length of Visible Light
Length of Day
Tomorrow will be .
, % of the Moon is Illuminated

Today's Extremes

Country Highs Country Lows

Community

WunderPhotos

Upload Photos

1,852,179 photos uploaded!

WunderBlogs® & News

Nearby

Air Quality

  Air Quality AQ Index Pollutant
Not available.

Snow Depth

Station Depth Elevation

Earthquake Activity

City Distance Mag. Time & Date
Minimum magnitude displayed is 2.5.

Coastal Water Temperatures

Place Temperature

Stations

Nearby Weather Stations

Station Location Temp. Windchill Dew Point Humidity Wind Precip. Elev Updated Type